createdAt,value
2018-10-07T00:01:51.696Z,9.50
2018-10-07T00:04:20.422Z,9.37
2018-10-07T00:06:49.005Z,9.31
2018-10-07T00:09:17.567Z,9.03
2018-10-07T00:11:46.734Z,8.98
2018-10-07T00:14:15.424Z,8.92
2018-10-07T00:16:44.075Z,9.00
2018-10-07T00:19:12.643Z,9.05
2018-10-07T00:21:41.241Z,8.96
2018-10-07T00:24:10.162Z,8.84
2018-10-07T00:26:38.932Z,8.66
2018-10-07T00:29:07.557Z,8.68
2018-10-07T00:31:40.523Z,8.74
2018-10-07T00:34:09.128Z,8.67
2018-10-07T00:36:37.821Z,8.61
2018-10-07T00:39:08.763Z,8.77
2018-10-07T00:41:37.377Z,8.77
2018-10-07T00:44:06.042Z,8.86
2018-10-07T00:46:35.507Z,8.67
2018-10-07T00:49:04.577Z,8.52
2018-10-07T00:51:33.158Z,8.30
2018-10-07T00:54:02.188Z,8.20
2018-10-07T00:56:30.886Z,8.23
2018-10-07T00:58:59.580Z,8.29
2018-10-07T01:01:28.655Z,8.33
2018-10-07T01:03:57.309Z,8.40
2018-10-07T01:06:25.954Z,8.48
2018-10-07T01:08:54.926Z,8.38
2018-10-07T01:11:23.625Z,8.55
2018-10-07T01:13:52.427Z,8.35
2018-10-07T01:16:21.501Z,8.14
2018-10-07T01:18:50.171Z,8.18
2018-10-07T01:21:18.829Z,8.34
2018-10-07T01:23:47.602Z,8.27
2018-10-07T01:26:16.305Z,8.21
2018-10-07T01:28:44.909Z,8.10
2018-10-07T01:31:13.918Z,8.01
2018-10-07T01:33:42.640Z,7.99
2018-10-07T01:36:11.316Z,8.01
2018-10-07T01:38:40.042Z,8.01
2018-10-07T01:41:08.835Z,8.14
2018-10-07T01:43:37.423Z,8.38
2018-10-07T01:46:06.366Z,8.21
2018-10-07T01:48:35.021Z,8.15
2018-10-07T01:51:03.699Z,8.28
2018-10-07T01:53:32.610Z,8.40
2018-10-07T01:56:01.285Z,8.06
2018-10-07T01:58:29.972Z,7.84
2018-10-07T02:00:59.083Z,7.83
2018-10-07T02:03:27.679Z,7.92
2018-10-07T02:05:56.263Z,8.01
2018-10-07T02:08:25.148Z,7.94
2018-10-07T02:10:53.808Z,7.66
2018-10-07T02:13:22.520Z,7.64
2018-10-07T02:15:51.513Z,7.72
2018-10-07T02:18:20.280Z,7.74
2018-10-07T02:20:49.015Z,7.78
2018-10-07T02:23:17.983Z,7.64
2018-10-07T02:25:46.700Z,7.68
2018-10-07T02:28:15.275Z,7.66
2018-10-07T02:30:51.121Z,7.58
2018-10-07T02:33:19.696Z,7.55
2018-10-07T02:35:48.271Z,7.62
2018-10-07T02:38:17.009Z,7.74
2018-10-07T02:40:45.610Z,7.63
2018-10-07T02:43:14.355Z,7.59
2018-10-07T02:45:43.230Z,7.61
2018-10-07T02:48:11.903Z,7.39
2018-10-07T02:50:41.658Z,7.82
2018-10-07T02:53:10.757Z,7.71
2018-10-07T02:55:39.569Z,7.72
2018-10-07T02:58:08.527Z,7.64
2018-10-07T03:00:37.194Z,7.55
2018-10-07T03:03:05.860Z,7.65
2018-10-07T03:05:34.463Z,7.65
2018-10-07T03:08:03.452Z,7.58
2018-10-07T03:10:32.037Z,7.48
2018-10-07T03:13:00.706Z,7.51
2018-10-07T03:15:29.839Z,7.64
2018-10-07T03:17:58.487Z,7.79
2018-10-07T03:20:27.174Z,7.89
2018-10-07T03:22:56.094Z,7.92
2018-10-07T03:25:24.769Z,7.95
2018-10-07T03:27:53.590Z,7.77
2018-10-07T03:30:22.658Z,7.72
2018-10-07T03:32:51.438Z,7.53
2018-10-07T03:35:20.010Z,7.37
2018-10-07T03:37:48.625Z,7.36
2018-10-07T03:40:17.293Z,7.30
2018-10-07T03:42:46.016Z,7.33
2018-10-07T03:45:21.650Z,7.35
2018-10-07T03:47:50.801Z,7.45
2018-10-07T03:50:19.720Z,7.53
2018-10-07T03:52:49.109Z,7.50
2018-10-07T03:55:17.802Z,7.52
2018-10-07T03:57:46.505Z,7.60
2018-10-07T04:00:15.706Z,7.54
2018-10-07T04:02:44.466Z,7.47
2018-10-07T04:05:13.063Z,7.34
2018-10-07T04:07:42.272Z,7.23
2018-10-07T04:10:11.052Z,7.40
2018-10-07T04:12:39.674Z,7.47
2018-10-07T04:15:08.846Z,7.47
2018-10-07T04:17:37.762Z,7.57
2018-10-07T04:20:06.697Z,7.33
2018-10-07T04:22:35.587Z,7.20
2018-10-07T04:25:04.501Z,7.21
2018-10-07T04:27:33.174Z,7.26
2018-10-07T04:30:01.980Z,7.30
2018-10-07T04:32:30.769Z,7.17
2018-10-07T04:34:59.869Z,7.13
2018-10-07T04:37:28.659Z,7.19
2018-10-07T04:39:57.470Z,7.29
2018-10-07T04:42:26.709Z,7.28
2018-10-07T04:44:55.761Z,7.28
2018-10-07T04:47:24.739Z,7.21
2018-10-07T04:49:53.543Z,7.16
2018-10-07T04:52:22.487Z,7.11
2018-10-07T04:54:51.442Z,7.12
2018-10-07T04:57:20.855Z,7.19
2018-10-07T04:59:49.433Z,7.21
2018-10-07T05:02:18.001Z,7.28
2018-10-07T05:04:47.079Z,7.43
2018-10-07T05:07:15.935Z,7.46
2018-10-07T05:09:45.011Z,7.64
2018-10-07T05:12:14.187Z,7.67
2018-10-07T05:14:43.320Z,7.82
2018-10-07T05:17:14.789Z,7.99
2018-10-07T05:19:43.955Z,8.14
2018-10-07T05:22:12.807Z,8.20
2018-10-07T05:24:42.256Z,8.28
2018-10-07T05:27:10.987Z,8.48
2018-10-07T05:29:39.677Z,8.62
2018-10-07T05:32:08.642Z,8.65
2018-10-07T05:34:37.990Z,8.80
2018-10-07T05:37:07.055Z,8.93
2018-10-07T05:39:35.766Z,9.10
2018-10-07T05:42:04.649Z,9.20
2018-10-07T05:44:33.762Z,9.39
2018-10-07T05:47:02.839Z,9.46
2018-10-07T05:49:31.726Z,9.50
2018-10-07T05:52:00.624Z,9.66
2018-10-07T05:54:29.839Z,9.76
2018-10-07T05:56:58.471Z,9.87
2018-10-07T05:59:27.220Z,10.03
2018-10-07T06:01:57.157Z,10.14
2018-10-07T06:04:30.262Z,10.16
2018-10-07T06:07:00.988Z,10.27
2018-10-07T06:09:31.712Z,10.30
2018-10-07T06:12:00.731Z,10.34
2018-10-07T06:14:40.830Z,10.48
2018-10-07T06:17:09.904Z,10.36
2018-10-07T06:19:38.718Z,10.59
2018-10-07T06:22:09.963Z,10.68
2018-10-07T06:24:38.979Z,10.72
2018-10-07T06:27:07.882Z,10.70
2018-10-07T06:29:36.886Z,10.78
2018-10-07T06:32:05.725Z,11.04
2018-10-07T06:34:34.715Z,11.05
2018-10-07T06:37:04.054Z,10.86
2018-10-07T06:39:32.910Z,11.10
2018-10-07T06:42:01.974Z,11.45
2018-10-07T06:44:31.252Z,11.53
2018-10-07T06:47:00.507Z,11.55
2018-10-07T06:49:29.237Z,11.76
2018-10-07T06:51:58.682Z,11.94
2018-10-07T06:54:27.643Z,11.81
2018-10-07T06:56:56.311Z,11.81
2018-10-07T06:59:25.216Z,12.05
2018-10-07T07:01:54.252Z,12.24
2018-10-07T07:04:23.079Z,12.26
2018-10-07T07:06:51.906Z,12.46
2018-10-07T07:09:20.941Z,12.39
2018-10-07T07:11:50.042Z,12.61
2018-10-07T07:14:19.143Z,12.82
2018-10-07T07:16:48.129Z,12.99
2018-10-07T07:19:16.808Z,12.98
2018-10-07T07:21:45.718Z,12.45
2018-10-07T07:24:14.427Z,12.84
2018-10-07T07:26:43.189Z,13.41
2018-10-07T07:29:12.015Z,13.45
2018-10-07T07:31:41.048Z,13.54
2018-10-07T07:34:09.961Z,13.60
2018-10-07T07:36:38.719Z,13.67
2018-10-07T07:39:08.383Z,13.79
2018-10-07T07:41:37.670Z,14.05
2018-10-07T07:44:06.548Z,14.11
2018-10-07T07:46:35.429Z,14.19
2018-10-07T07:49:04.343Z,13.91
2018-10-07T07:51:33.050Z,13.60
2018-10-07T07:54:02.290Z,13.89
2018-10-07T07:56:31.358Z,14.03
2018-10-07T07:58:59.991Z,14.29
2018-10-07T08:01:29.044Z,14.51
2018-10-07T08:03:58.314Z,14.60
2018-10-07T08:06:27.415Z,14.70
2018-10-07T08:08:56.801Z,14.71
2018-10-07T08:11:25.799Z,14.74
2018-10-07T08:13:54.780Z,14.75
2018-10-07T08:16:23.574Z,14.79
2018-10-07T08:18:52.791Z,14.95
2018-10-07T08:21:21.756Z,15.07
2018-10-07T08:23:50.450Z,15.15
2018-10-07T08:26:19.572Z,15.25
2018-10-07T08:28:48.210Z,15.30
2018-10-07T08:31:17.365Z,15.41
2018-10-07T08:33:46.611Z,15.50
2018-10-07T08:36:15.472Z,15.69
2018-10-07T08:38:44.250Z,15.80
2018-10-07T08:41:13.488Z,16.07
2018-10-07T08:43:42.400Z,16.08
2018-10-07T08:46:11.148Z,16.01
2018-10-07T08:48:40.485Z,16.45
2018-10-07T08:51:09.485Z,16.63
2018-10-07T08:53:38.454Z,16.83
2018-10-07T08:56:07.337Z,17.06
2018-10-07T08:58:35.950Z,17.08
2018-10-07T09:01:05.070Z,17.26
2018-10-07T09:03:34.480Z,17.28
2018-10-07T09:06:03.398Z,17.44
2018-10-07T09:08:32.112Z,17.82
2018-10-07T09:11:01.257Z,17.76
2018-10-07T09:13:30.009Z,17.98
2018-10-07T09:15:58.705Z,18.23
2018-10-07T09:18:27.421Z,18.60
2018-10-07T09:20:56.275Z,18.72
2018-10-07T09:23:24.906Z,19.10
2018-10-07T09:25:53.552Z,19.24
2018-10-07T09:28:22.873Z,19.44
2018-10-07T09:30:51.957Z,19.70
2018-10-07T09:33:20.746Z,19.82
2018-10-07T09:35:49.843Z,20.22
2018-10-07T09:38:18.639Z,20.25
2018-10-07T09:40:47.619Z,20.34
2018-10-07T09:43:16.408Z,20.11
2018-10-07T09:45:45.179Z,20.65
2018-10-07T09:48:13.938Z,21.34
2018-10-07T09:50:42.877Z,21.84
2018-10-07T09:53:11.719Z,21.97
2018-10-07T09:55:40.417Z,22.42
2018-10-07T09:58:09.649Z,23.07
2018-10-07T10:00:41.317Z,23.13
2018-10-07T10:03:12.164Z,23.76
2018-10-07T10:05:40.975Z,23.92
2018-10-07T10:08:09.838Z,24.38
2018-10-07T10:10:38.966Z,24.55
2018-10-07T10:13:07.830Z,24.35
2018-10-07T10:15:36.898Z,24.56
2018-10-07T10:19:12.916Z,24.87
2018-10-07T10:21:45.009Z,24.93
2018-10-07T10:24:24.562Z,25.32
2018-10-07T10:29:18.390Z,25.85
2018-10-07T10:32:00.548Z,25.15
2018-10-07T10:35:50.927Z,25.33
2018-10-07T10:38:26.789Z,24.91
2018-10-07T10:41:01.083Z,24.81
2018-10-07T10:43:40.636Z,24.30
2018-10-07T10:46:15.974Z,24.54
2018-10-07T10:50:58.443Z,24.98
2018-10-07T10:53:34.099Z,25.03
2018-10-07T10:56:08.649Z,25.20
2018-10-07T11:00:52.005Z,25.36
2018-10-07T11:03:34.139Z,25.31
2018-10-07T11:06:36.862Z,25.62
2018-10-07T11:09:39.281Z,25.90
2018-10-07T11:12:16.861Z,26.18
2018-10-07T11:15:03.775Z,26.40
2018-10-07T11:18:41.184Z,26.57
2018-10-07T11:21:21.136Z,26.57
2018-10-07T11:23:59.193Z,26.52
2018-10-07T11:26:36.658Z,26.82
2018-10-07T11:29:17.739Z,27.34
2018-10-07T11:31:57.860Z,27.42
2018-10-07T11:35:39.490Z,27.89
2018-10-07T11:38:15.081Z,27.63
2018-10-07T11:41:05.519Z,27.86
2018-10-07T11:43:43.955Z,27.57
2018-10-07T11:46:19.585Z,27.55
2018-10-07T11:48:58.200Z,27.28
2018-10-07T11:53:39.332Z,26.76
2018-10-07T11:56:08.022Z,26.91
2018-10-07T11:58:36.946Z,27.42
2018-10-07T12:01:05.988Z,27.87
2018-10-07T12:03:35.857Z,28.37
2018-10-07T12:06:05.022Z,28.02
2018-10-07T12:08:34.280Z,28.37
2018-10-07T12:11:03.227Z,28.78
2018-10-07T12:13:39.326Z,29.18
2018-10-07T12:16:08.351Z,29.19
2018-10-07T12:18:37.123Z,29.22
2018-10-07T12:21:06.138Z,29.60
2018-10-07T12:23:34.873Z,29.87
2018-10-07T12:26:03.917Z,30.02
2018-10-07T12:28:32.907Z,27.76
2018-10-07T12:31:01.772Z,28.45
2018-10-07T12:33:30.951Z,29.01
2018-10-07T12:35:59.975Z,29.38
2018-10-07T12:38:28.550Z,29.31
2018-10-07T12:40:57.729Z,29.56
2018-10-07T12:43:27.056Z,29.77
2018-10-07T12:45:55.698Z,30.23
2018-10-07T12:48:24.251Z,30.28
2018-10-07T12:50:52.986Z,30.82
2018-10-07T12:53:22.002Z,30.72
2018-10-07T12:55:50.859Z,31.02
2018-10-07T12:58:19.942Z,31.14
2018-10-07T13:00:48.869Z,31.32
2018-10-07T13:03:17.858Z,31.69
2018-10-07T13:05:46.977Z,31.97
2018-10-07T13:08:15.723Z,31.86
2018-10-07T13:10:44.620Z,31.54
2018-10-07T13:13:13.958Z,29.84
2018-10-07T13:15:42.676Z,31.15
2018-10-07T13:18:11.396Z,31.73
2018-10-07T13:20:40.070Z,31.93
2018-10-07T13:23:09.501Z,32.22
2018-10-07T13:25:38.582Z,32.33
2018-10-07T13:28:07.855Z,32.10
2018-10-07T13:30:36.994Z,32.01
2018-10-07T13:33:05.642Z,32.07
2018-10-07T13:35:34.960Z,32.05
2018-10-07T13:38:03.852Z,31.84
2018-10-07T13:40:32.662Z,31.40
2018-10-07T13:43:01.900Z,31.32
2018-10-07T13:45:30.663Z,31.65
2018-10-07T13:47:59.439Z,31.97
2018-10-07T13:50:28.354Z,31.92
2018-10-07T13:52:57.206Z,32.25
2018-10-07T13:55:25.927Z,32.27
2018-10-07T13:57:54.864Z,32.76
2018-10-07T14:00:23.981Z,32.84
2018-10-07T14:02:52.778Z,32.93
2018-10-07T14:05:22.638Z,33.27
2018-10-07T14:07:51.890Z,33.45
2018-10-07T14:10:20.903Z,33.61
2018-10-07T14:12:50.202Z,31.66
2018-10-07T14:15:18.831Z,31.61
2018-10-07T14:17:47.673Z,30.29
2018-10-07T14:20:16.350Z,31.17
2018-10-07T14:22:45.121Z,31.40
2018-10-07T14:25:13.856Z,31.71
2018-10-07T14:27:42.731Z,31.83
2018-10-07T14:30:11.828Z,32.23
2018-10-07T14:32:41.164Z,32.54
2018-10-07T14:35:10.249Z,32.61
2018-10-07T14:37:38.917Z,32.14
2018-10-07T14:40:08.243Z,30.72
2018-10-07T14:42:37.095Z,30.22
2018-10-07T14:45:05.871Z,29.63
2018-10-07T14:47:35.787Z,29.67
2018-10-07T14:50:04.477Z,29.74
2018-10-07T14:52:33.502Z,30.09
2018-10-07T14:55:02.591Z,30.42
2018-10-07T14:57:31.575Z,30.36
2018-10-07T15:00:00.350Z,29.93
2018-10-07T15:02:35.682Z,30.17
2018-10-07T15:05:04.729Z,30.47
2018-10-07T15:07:33.331Z,30.43
2018-10-07T15:10:02.328Z,30.76
2018-10-07T15:12:31.444Z,30.69
2018-10-07T15:15:00.135Z,30.32
2018-10-07T15:17:29.189Z,29.79
2018-10-07T15:19:57.870Z,29.08
2018-10-07T15:22:26.956Z,28.79
2018-10-07T15:24:56.585Z,28.56
2018-10-07T15:27:25.768Z,28.26
2018-10-07T15:29:54.839Z,27.95
2018-10-07T15:32:23.918Z,28.10
2018-10-07T15:34:52.807Z,28.43
2018-10-07T15:37:21.852Z,28.04
2018-10-07T15:39:51.100Z,28.03
2018-10-07T15:42:19.951Z,27.82
2018-10-07T15:44:48.737Z,27.64
2018-10-07T15:47:17.738Z,27.17
2018-10-07T15:49:46.366Z,26.81
2018-10-07T15:52:15.263Z,26.38
2018-10-07T15:54:44.286Z,26.20
2018-10-07T15:57:13.290Z,25.91
2018-10-07T15:59:42.258Z,25.62
2018-10-07T16:02:11.383Z,25.28
2018-10-07T16:04:40.563Z,24.95
2018-10-07T16:07:09.661Z,24.64
2018-10-07T16:09:38.823Z,24.29
2018-10-07T16:12:07.857Z,23.99
2018-10-07T16:14:36.762Z,22.99
2018-10-07T16:17:06.237Z,22.68
2018-10-07T16:19:35.285Z,22.90
2018-10-07T16:22:04.151Z,22.60
2018-10-07T16:24:34.395Z,22.19
2018-10-07T16:27:03.371Z,21.61
2018-10-07T16:29:32.094Z,21.68
2018-10-07T16:32:01.393Z,21.29
2018-10-07T16:34:30.142Z,20.93
2018-10-07T16:36:58.920Z,19.83
2018-10-07T16:39:27.571Z,19.38
2018-10-07T16:41:56.262Z,19.30
2018-10-07T16:44:24.838Z,19.27
2018-10-07T16:46:53.864Z,19.62
2018-10-07T16:49:22.623Z,19.41
2018-10-07T16:51:51.461Z,19.41
2018-10-07T16:54:20.366Z,18.87
2018-10-07T16:56:49.027Z,18.28
2018-10-07T16:59:18.119Z,18.78
2018-10-07T17:01:47.017Z,18.64
2018-10-07T17:04:15.866Z,18.49
2018-10-07T17:06:45.259Z,18.55
2018-10-07T17:09:14.236Z,18.32
2018-10-07T17:11:43.185Z,17.99
2018-10-07T17:14:12.530Z,18.07
2018-10-07T17:16:41.272Z,18.02
2018-10-07T17:19:10.201Z,16.35
2018-10-07T17:21:39.510Z,17.84
2018-10-07T17:24:08.492Z,17.86
2018-10-07T17:26:37.704Z,17.78
2018-10-07T17:29:07.222Z,17.42
2018-10-07T17:31:35.905Z,17.38
2018-10-07T17:34:04.886Z,17.29
2018-10-07T17:36:34.116Z,17.32
2018-10-07T17:39:03.516Z,17.21
2018-10-07T17:41:33.987Z,17.13
2018-10-07T17:44:02.635Z,17.12
2018-10-07T17:46:31.283Z,17.12
2018-10-07T17:49:00.434Z,17.08
2018-10-07T17:51:29.270Z,17.05
2018-10-07T17:53:58.167Z,17.03
2018-10-07T17:56:27.171Z,17.00
2018-10-07T17:58:56.114Z,16.95
2018-10-07T18:01:25.047Z,16.87
2018-10-07T18:03:54.271Z,16.55
2018-10-07T18:06:23.383Z,16.38
2018-10-07T18:08:52.319Z,16.39
2018-10-07T18:11:22.467Z,15.72
2018-10-07T18:13:51.111Z,15.94
2018-10-07T18:16:19.838Z,15.68
2018-10-07T18:18:48.847Z,15.83
2018-10-07T18:21:17.935Z,15.08
2018-10-07T18:23:46.830Z,15.31
2018-10-07T18:26:16.231Z,15.42
2018-10-07T18:28:45.205Z,15.24
2018-10-07T18:31:14.177Z,14.83
2018-10-07T18:33:43.004Z,14.67
2018-10-07T18:36:12.007Z,15.17
2018-10-07T18:38:40.949Z,15.11
2018-10-07T18:41:10.178Z,15.07
2018-10-07T18:43:38.896Z,15.02
2018-10-07T18:46:07.496Z,15.14
2018-10-07T18:48:36.828Z,14.76
2018-10-07T18:51:05.852Z,14.44
2018-10-07T18:53:34.581Z,14.70
2018-10-07T18:56:04.058Z,14.61
2018-10-07T18:58:33.091Z,14.74
2018-10-07T19:01:02.471Z,14.35
2018-10-07T19:03:31.763Z,14.02
2018-10-07T19:06:00.636Z,13.90
2018-10-07T19:08:29.449Z,13.78
2018-10-07T19:10:58.208Z,13.73
2018-10-07T19:13:26.894Z,13.97
2018-10-07T19:15:55.713Z,13.91
2018-10-07T19:18:24.906Z,13.90
2018-10-07T19:20:53.774Z,13.45
2018-10-07T19:23:22.567Z,13.60
2018-10-07T19:25:51.898Z,13.52
2018-10-07T19:28:20.691Z,13.47
2018-10-07T19:30:49.652Z,13.49
2018-10-07T19:33:18.720Z,13.55
2018-10-07T19:35:47.542Z,13.03
2018-10-07T19:38:16.635Z,12.94
2018-10-07T19:40:46.050Z,12.92
2018-10-07T19:43:14.678Z,12.66
2018-10-07T19:45:43.305Z,12.69
2018-10-07T19:48:12.514Z,12.68
2018-10-07T19:50:41.396Z,12.71
2018-10-07T19:53:10.093Z,12.92
2018-10-07T19:55:39.077Z,12.69
2018-10-07T19:58:08.173Z,12.52
2018-10-07T20:00:37.280Z,12.47
2018-10-07T20:03:06.365Z,12.39
2018-10-07T20:05:35.304Z,12.33
2018-10-07T20:08:04.087Z,12.33
2018-10-07T20:10:33.150Z,12.29
2018-10-07T20:13:01.783Z,12.24
2018-10-07T20:15:30.532Z,12.02
2018-10-07T20:17:59.987Z,12.11
2018-10-07T20:20:28.928Z,12.09
2018-10-07T20:22:57.902Z,11.92
2018-10-07T20:25:26.623Z,11.87
2018-10-07T20:27:55.288Z,11.88
2018-10-07T20:30:24.076Z,11.92
2018-10-07T20:32:53.083Z,11.97
2018-10-07T20:35:22.120Z,11.95
2018-10-07T20:37:51.249Z,11.90
2018-10-07T20:40:20.309Z,11.73
2018-10-07T20:42:48.916Z,11.61
2018-10-07T20:45:17.561Z,11.61
2018-10-07T20:47:46.544Z,11.61
2018-10-07T20:50:15.502Z,11.49
2018-10-07T20:52:44.142Z,11.39
2018-10-07T20:55:13.421Z,11.35
2018-10-07T20:57:42.395Z,11.22
2018-10-07T21:00:11.130Z,11.47
2018-10-07T21:02:40.525Z,11.24
2018-10-07T21:05:09.691Z,11.26
2018-10-07T21:07:38.725Z,11.26
2018-10-07T21:10:07.458Z,11.16
2018-10-07T21:12:36.083Z,11.29
2018-10-07T21:15:04.827Z,11.13
2018-10-07T21:17:33.954Z,11.10
2018-10-07T21:20:02.829Z,10.99
2018-10-07T21:22:32.028Z,11.07
2018-10-07T21:25:01.500Z,11.11
2018-10-07T21:27:30.458Z,11.03
2018-10-07T21:29:59.518Z,10.96
2018-10-07T21:32:28.634Z,10.99
2018-10-07T21:34:57.662Z,10.80
2018-10-07T21:37:26.449Z,10.98
2018-10-07T21:39:55.339Z,11.06
2018-10-07T21:42:24.317Z,11.20
2018-10-07T21:44:52.990Z,11.09
2018-10-07T21:47:22.099Z,11.30
2018-10-07T21:49:50.890Z,11.24
2018-10-07T21:52:19.839Z,11.13
2018-10-07T21:54:48.879Z,11.03
2018-10-07T21:57:17.769Z,10.82
2018-10-07T21:59:46.667Z,10.80
2018-10-07T22:02:15.526Z,10.74
2018-10-07T22:04:44.514Z,10.68
2018-10-07T22:07:13.379Z,10.70
2018-10-07T22:09:42.169Z,10.79
2018-10-07T22:12:10.898Z,10.76
2018-10-07T22:14:39.567Z,10.90
2018-10-07T22:17:08.523Z,10.72
2018-10-07T22:19:37.500Z,10.68
2018-10-07T22:22:06.579Z,10.64
2018-10-07T22:24:35.794Z,10.57
2018-10-07T22:27:04.743Z,10.52
2018-10-07T22:29:33.663Z,10.47
2018-10-07T22:32:03.864Z,10.33
2018-10-07T22:34:32.778Z,10.32
2018-10-07T22:37:01.637Z,10.48
2018-10-07T22:39:30.598Z,10.47
2018-10-07T22:41:59.857Z,10.31
2018-10-07T22:44:28.559Z,10.46
2018-10-07T22:46:57.941Z,10.64
2018-10-07T22:49:26.615Z,10.64
2018-10-07T22:51:55.744Z,10.51
2018-10-07T22:54:24.616Z,10.41
2018-10-07T22:56:53.519Z,10.31
2018-10-07T22:59:22.312Z,10.19
2018-10-07T23:01:51.119Z,10.23
2018-10-07T23:04:19.893Z,10.29
2018-10-07T23:06:48.776Z,10.51
2018-10-07T23:09:17.986Z,10.38
2018-10-07T23:11:46.762Z,10.33
2018-10-07T23:14:15.385Z,10.20
2018-10-07T23:16:44.668Z,10.25
2018-10-07T23:19:13.427Z,10.31
2018-10-07T23:21:42.079Z,10.42
2018-10-07T23:24:11.041Z,10.51
2018-10-07T23:26:39.694Z,10.67
2018-10-07T23:29:08.775Z,10.33
2018-10-07T23:31:37.871Z,10.33
2018-10-07T23:34:06.789Z,10.55
2018-10-07T23:36:35.586Z,10.72
2018-10-07T23:39:05.701Z,10.42
2018-10-07T23:41:34.700Z,10.17
2018-10-07T23:44:03.480Z,9.95
2018-10-07T23:46:32.506Z,9.90
2018-10-07T23:49:01.369Z,9.76
2018-10-07T23:51:30.369Z,9.58
2018-10-07T23:53:59.044Z,9.56
2018-10-07T23:56:27.794Z,9.54
2018-10-07T23:58:56.685Z,9.68
